EW8360 Weather Reports


Display with metric or nautical units.
time (UTC)temp
F
wind
direction
speed
MPH
gust
MPH
rain 1hr
in
rain 24hr
in
rain mn
in
humidity
%
barometer
mb
20200407235113 59 262 2.0 13.0 0.02 0.24 0.61 77 1012.7
20200407234613 59 230 2.0 13.0 0.02 0.24 0.61 76 1012.6
20200407234112 59 236 0.0 10.0 0.02 0.24 0.61 79 1012.7
20200407233612 59 161 2.0 17.0 0.02 0.24 0.61 80 1012.7
20200407233113 59 74 5.0 17.0 0.02 0.24 0.61 80 1012.6
20200407232613 59 203 3.0 13.0 0.01 0.22 0.60 84 1012.5
20200407232112 59 138 2.0 20.0 0.01 0.22 0.60 86 1012.4
20200407231614 59 310 2.0 20.0 0.01 0.22 0.60 85 1012.4
20200407231113 60 230 3.0 13.0 0.01 0.22 0.60 86 1012.4
20200407230613 60 129 1.0 15.0 0.01 0.22 0.60 89 1012.4
20200407230111 60 89 1.0 15.0 0.01 0.22 0.60 89 1012.5
20200407225611 61 87 0.0 13.0 0.01 0.21 0.59 89 1012.5
20200407225117 61 158 2.0 17.0 0.01 0.21 0.59 89 1012.4
20200407224612 61 186 3.0 17.0 0.01 0.21 0.59 88 1012.5
20200407224111 61 132 6.0 17.0 0.01 0.21 0.59 87 1012.5
20200407223612 61 256 3.0 13.0 0.01 0.21 0.59 87 1012.5
20200407223112 61 272 5.0 8.0 0.02 0.21 0.59 86 1012.5
20200407222612 61 357 1.0 10.0 0.05 0.21 0.59 88 1012.4
20200407222116 60 176 2.0 20.0 0.05 0.21 0.59 88 1012.5
20200407221612 60 275 1.0 20.0 0.06 0.21 0.59 88 1012.6
20200407221112 60 200 4.0 17.0 0.07 0.21 0.59 89 1012.6
20200407220612 60 98 0.0 15.0 0.08 0.21 0.59 92 1012.6
20200407220110 60 107 5.0 15.0 0.08 0.21 0.59 90 1012.8
20200407215616 60 160 5.0 10.0 0.08 0.20 0.59 91 1012.9
20200407215110 59 359 2.0 10.0 0.09 0.20 0.58 91 1012.9
20200407214611 59 166 4.0 10.0 0.11 0.20 0.58 92 1013.0
20200407214110 59 231 2.0 10.0 0.11 0.20 0.58 93 1013.2
20200407213612 59 175 0.0 2.0 0.12 0.20 0.58 93 1013.3
20200407213110 59 295 0.0 8.0 0.12 0.19 0.57 93 1013.5
20200407212611 59 283 1.0 10.0 0.11 0.17 0.56 93 1013.7
20200407212109 59 156 2.0 13.0 0.11 0.17 0.54 92 1013.8
20200407211609 59 241 4.0 13.0 0.09 0.15 0.53 91 1013.9
20200407211110 59 326 2.0 10.0 0.08 0.14 0.52 92 1013.9
20200407210610 59 75 5.0 8.0 0.07 0.13 0.51 91 1014.0
20200407210109 59 253 4.0 8.0 0.07 0.13 0.51 92 1014.1
20200407205609 59 75 0.0 5.0 0.06 0.12 0.50 92 1014.2
20200407205108 59 194 0.0 5.0 0.05 0.11 0.48 92 1014.3
20200407204609 59 105 0.0 8.0 0.04 0.09 0.47 92 1014.4
20200407204108 59 211 1.0 8.0 0.04 0.09 0.47 91 1014.4
20200407203610 59 198 1.0 10.0 0.02 0.08 0.46 90 1014.4
20200407203108 59 100 0.0 15.0 0.01 0.07 0.45 90 1014.5
20200407202609 59 213 2.0 15.0 0.00 0.06 0.44 89 1014.5
20200407202108 59 136 1.0 10.0 0.00 0.06 0.44 89 1014.5
20200407201608 60 197 5.0 13.0 0.00 0.06 0.44 91 1014.6
20200407201108 60 336 2.0 15.0 0.00 0.06 0.44 90 1014.7
20200407200609 61 103 8.0 15.0 0.00 0.06 0.44 89 1014.8
20200407200108 62 168 4.0 10.0 0.00 0.06 0.44 88 1014.7
20200407195607 62 196 8.0 10.0 0.00 0.06 0.44 88 1014.6
20200407195107 63 210 2.0 8.0 0.00 0.06 0.44 86 1014.6
20200407194608 63 263 1.0 8.0 0.00 0.06 0.44 83 1014.6
20200407194109 62 195 2.0 8.0 0.00 0.06 0.44 80 1014.6
20200407193608 62 205 2.0 8.0 0.00 0.06 0.44 80 1014.5
20200407193106 62 224 2.0 8.0 0.00 0.06 0.44 81 1014.7
20200407192608 63 269 1.0 8.0 0.00 0.06 0.44 82 1014.8
20200407192108 63 190 2.0 5.0 0.00 0.06 0.44 82 1014.8
20200407191612 63 185 0.0 5.0 0.00 0.06 0.44 83 1014.9
20200407191107 63 210 0.0 5.0 0.00 0.06 0.44 81 1014.9
20200407190608 63 204 0.0 5.0 0.00 0.06 0.44 79 1014.9
20200407190113 63 234 0.0 5.0 0.00 0.06 0.44 78 1014.9
20200407185611 63 290 0.0 10.0 0.00 0.06 0.44 79 1015.0
20200407185106 63 233 3.0 10.0 0.00 0.06 0.44 77 1015.0
20200407184613 63 236 3.0 8.0 0.00 0.06 0.44 76 1015.0
20200407184107 63 87 0.0 8.0 0.00 0.06 0.44 79 1015.1
20200407183609 62 27 1.0 8.0 0.00 0.06 0.44 78 1015.2
20200407183107 62 34 0.0 8.0 0.00 0.06 0.44 75 1015.2
20200407182608 61 81 0.0 5.0 0.00 0.06 0.44 78 1015.3
20200407182106 61 152 0.0 2.0 0.00 0.06 0.44 80 1015.4
20200407181606 60 339 0.0 5.0 0.00 0.06 0.44 83 1015.5
20200407181105 60 142 0.0 10.0 0.00 0.06 0.44 83 1015.5
20200407180612 60 73 0.0 10.0 0.00 0.06 0.44 83 1015.4
20200407180106 60 149 2.0 8.0 0.00 0.06 0.44 82 1015.5
20200407175605 60 22 0.0 8.0 0.00 0.06 0.44 85 1015.5
20200407175105 60 159 1.0 5.0 0.00 0.06 0.44 84 1015.5
20200407174606 60 166 0.0 5.0 0.00 0.06 0.44 85 1015.6
20200407174106 60 116 0.0 8.0 0.00 0.06 0.44 84 1015.6
20200407173605 60 100 2.0 8.0 0.00 0.06 0.44 82 1015.6
20200407173104 60 257 0.0 5.0 0.00 0.06 0.44 82 1015.6
20200407172604 60 4 0.0 8.0 0.00 0.06 0.44 83 1015.7
20200407172106 59 195 3.0 8.0 0.00 0.06 0.44 81 1015.8
20200407171604 59 122 0.0 5.0 0.00 0.06 0.44 84 1015.7
20200407171104 58 325 0.0 5.0 0.00 0.06 0.44 85 1015.6
20200407170604 58 95 2.0 5.0 0.00 0.06 0.44 86 1015.7
20200407170105 57 71 1.0 5.0 0.00 0.06 0.44 88 1015.7
20200407165604 56 26 0.0 5.0 0.01 0.06 0.44 92 1015.7
20200407165103 56 344 0.0 5.0 0.01 0.06 0.44 93 1015.7
20200407164603 56 332 0.0 5.0 0.01 0.06 0.44 94 1015.7
20200407164104 55 21 2.0 5.0 0.01 0.06 0.44 94 1015.7
20200407163609 55 99 0.0 2.0 0.01 0.06 0.44 94 1015.6
20200407163102 55 357 0.0 8.0 0.01 0.06 0.44 94 1015.8
20200407162603 55 37 2.0 8.0 0.01 0.06 0.44 94 1015.7
20200407162104 55 26 5.0 8.0 0.01 0.06 0.44 94 1015.7
20200407161604 54 43 2.0 8.0 0.01 0.06 0.44 94 1015.7
20200407161103 54 37 3.0 5.0 0.01 0.06 0.44 95 1015.6
20200407160602 54 37 2.0 8.0 0.01 0.06 0.44 95 1015.7
20200407160104 54 25 3.0 8.0 0.01 0.06 0.44 95 1015.7
20200407155603 54 32 2.0 5.0 0.00 0.05 0.43 95 1015.5
20200407155103 54 9 0.0 2.0 0.00 0.05 0.43 95 1015.6
20200407154602 54 126 0.0 5.0 0.00 0.05 0.43 96 1015.5
20200407154103 54 31 2.0 8.0 0.00 0.05 0.43 96 1015.6
20200407153603 54 13 2.0 8.0 0.00 0.05 0.43 96 1015.5
20200407153102 53 45 3.0 8.0 0.00 0.05 0.43 96 1015.6
20200407152602 53 59 1.0 8.0 0.00 0.05 0.43 96 1015.5
20200407152103 53 12 2.0 8.0 0.00 0.05 0.43 96 1015.5
20200407151602 53 40 2.0 5.0 0.00 0.05 0.43 96 1015.4
20200407151102 53 10 2.0 8.0 0.00 0.05 0.43 96 1015.4
20200407150601 53 19 1.0 8.0 0.00 0.05 0.43 96 1015.4
20200407150101 53 29 2.0 8.0 0.00 0.05 0.43 96 1015.4
20200407145602 53 40 3.0 10.0 0.01 0.05 0.43 96 1015.4
20200407145101 53 24 4.0 10.0 0.01 0.05 0.43 96 1015.3
20200407144601 52 27 5.0 10.0 0.01 0.05 0.43 96 1015.4
20200407144101 52 33 6.0 10.0 0.01 0.05 0.43 96 1015.2
20200407143601 52 23 3.0 8.0 0.01 0.05 0.43 96 1015.3
20200407143100 52 7 2.0 8.0 0.01 0.05 0.43 97 1015.2
20200407142602 52 19 2.0 8.0 0.01 0.05 0.43 97 1015.2
20200407142101 52 8 4.0 8.0 0.01 0.05 0.43 97 1015.2
20200407141601 52 30 1.0 8.0 0.01 0.05 0.43 97 1015.2
20200407141100 52 41 2.0 8.0 0.01 0.05 0.43 97 1015.2
20200407140601 52 6 1.0 8.0 0.01 0.05 0.43 97 1015.1
20200407140100 52 46 0.0 10.0 0.01 0.05 0.43 97 1015.0
20200407135600 52 22 0.0 10.0 0.00 0.04 0.41 97 1014.9
20200407135100 52 48 4.0 8.0 0.00 0.04 0.41 96 1015.0
20200407134559 52 34 3.0 8.0 0.00 0.04 0.41 96 1014.9
20200407134059 52 28 4.0 8.0 0.01 0.04 0.41 96 1015.0
20200407133600 52 57 5.0 8.0 0.01 0.04 0.41 96 1014.9
20200407133101 52 37 2.0 8.0 0.01 0.04 0.41 96 1014.9
20200407132559 52 16 2.0 5.0 0.01 0.04 0.41 96 1014.8
20200407132058 52 352 0.0 5.0 0.01 0.04 0.41 96 1014.8
20200407131600 52 329 2.0 5.0 0.01 0.04 0.41 96 1014.8
20200407131100 52 67 1.0 5.0 0.01 0.04 0.41 96 1014.8
20200407130558 52 348 0.0 5.0 0.01 0.04 0.41 96 1014.7
20200407130059 52 114 2.0 5.0 0.01 0.04 0.41 96 1014.7
20200407125559 52 330 0.0 5.0 0.01 0.04 0.41 96 1014.7
20200407125059 52 97 0.0 5.0 0.01 0.04 0.41 96 1014.7
20200407124558 52 101 0.0 5.0 0.01 0.04 0.41 97 1014.8
20200407124059 53 100 0.0 5.0 0.00 0.02 0.41 97 1014.7
20200407123559 53 113 0.0 5.0 0.01 0.02 0.40 97 1014.7
20200407123059 53 104 0.0 5.0 0.01 0.02 0.40 97 1014.6
20200407122557 53 82 2.0 5.0 0.01 0.02 0.40 97 1014.6
20200407122057 53 111 0.0 2.0 0.01 0.02 0.40 97 1014.5
20200407121559 53 98 0.0 5.0 0.01 0.02 0.40 97 1014.5
20200407121058 53 119 1.0 5.0 0.01 0.02 0.40 97 1014.5
20200407120558 53 109 1.0 5.0 0.01 0.02 0.40 97 1014.5
20200407120057 53 96 0.0 5.0 0.01 0.02 0.40 97 1014.6
20200407115602 53 152 0.0 5.0 0.01 0.02 0.40 97 1014.6
20200407115558 53 105 1.0 5.0 0.01 0.02 0.40 97 1014.5
20200407114556 53 136 2.0 5.0 0.01 0.02 0.40 97 1014.5
20200407114057 53 135 1.0 5.0 0.02 0.02 0.40 97 1014.5
20200407113558 53 123 1.0 5.0 0.01 0.01 0.39 97 1014.6
20200407113057 53 88 0.0 5.0 0.01 0.01 0.39 97 1014.6
20200407112557 53 90 0.0 2.0 0.01 0.01 0.39 97 1014.6
20200407112057 53 85 1.0 2.0 0.01 0.01 0.39 97 1014.6
20200407111557 53 205 0.0 5.0 0.01 0.01 0.39 97 1014.6
20200407111057 53 123 0.0 5.0 0.01 0.01 0.39 97 1014.4
20200407110557 53 137 2.0 5.0 0.01 0.01 0.39 97 1014.4
20200407110056 53 105 2.0 5.0 0.01 0.01 0.39 97 1014.4
20200407105555 53 92 2.0 5.0 0.01 0.01 0.39 97 1014.5
20200407105110 53 139 1.0 5.0 0.01 0.01 0.39 97 1014.5
20200407104557 53 133 1.0 5.0 0.01 0.01 0.39 97 1014.6
20200407104055 53 187 0.0 2.0 0.00 0.00 0.38 97 1014.6
20200407103557 53 174 0.0 2.0 0.00 0.00 0.38 97 1014.5
20200407103043 53 143 0.0 5.0 0.00 0.00 0.38 96 1014.5
20200407102538 53 119 2.0 5.0 0.00 0.00 0.38 96 1014.6
20200407102035 53 123 1.0 8.0 0.00 0.00 0.38 96 1014.7
20200407101516 53 103 2.0 5.0 0.00 0.00 0.38 96 1014.6
20200407101011 53 112 1.0 5.0 0.00 0.00 0.38 96 1014.7
20200407100506 53 128 2.0 0.0 0.00 0.00 0.38 96 1014.9
20200407100127 53 137 2.0 2.0 0.01 1.26 0.38 96 1014.9
20200407095628 53 97 1.0 5.0 0.01 1.26 0.38 96 1014.8
20200407095128 53 94 0.0 5.0 0.01 1.26 0.38 96 1014.9
20200407094628 53 43 2.0 5.0 0.01 1.26 0.38 96 1014.9
20200407094126 53 42 2.0 5.0 0.01 1.26 0.38 97 1014.9
20200407093627 53 71 1.0 2.0 0.02 1.26 0.38 98 1014.9
20200407093126 53 67 0.0 2.0 0.02 1.26 0.38 98 1014.9
20200407092628 53 21 0.0 2.0 0.04 1.26 0.38 98 1015.0
20200407092126 53 21 0.0 5.0 0.05 1.26 0.38 98 1015.0
20200407091626 53 342 1.0 5.0 0.07 1.25 0.37 98 1015.1
20200407091126 53 342 2.0 5.0 0.13 1.25 0.37 98 1015.1
20200407090627 53 341 3.0 5.0 0.17 1.25 0.37 98 1015.1
20200407090126 54 354 0.0 5.0 0.19 1.25 0.37 98 1015.2
20200407085625 54 343 1.0 5.0 0.22 1.25 0.37 98 1015.2
20200407085126 54 353 2.0 8.0 0.26 1.25 0.37 98 1015.2
20200407084626 54 31 1.0 8.0 0.28 1.25 0.37 98 1015.2
20200407084126 54 1 2.0 8.0 0.30 1.25 0.37 98 1015.2
20200407083625 54 0 3.0 5.0 0.28 1.24 0.35 98 1015.2
20200407083125 54 274 0.0 5.0 0.30 1.24 0.35 98 1015.3
20200407082626 54 278 0.0 5.0 0.31 1.23 0.34 98 1015.2
20200407082125 54 288 0.0 8.0 0.31 1.22 0.33 98 1015.1
20200407081625 54 239 0.0 8.0 0.27 1.18 0.30 98 1015.3
20200407081124 55 174 2.0 5.0 0.24 1.12 0.25 98 1015.4
20200407080626 55 178 1.0 5.0 0.20 1.09 0.20 98 1015.3
20200407080125 55 340 0.0 2.0 0.18 1.06 0.18 98 1015.2
20200407075625 55 315 0.0 0.0 0.15 1.03 0.14 98 1015.1
20200407075126 55 333 0.0 5.0 0.12 0.99 0.12 98 1015.1
20200407074625 55 340 0.0 10.0 0.09 0.97 0.08 98 1015.1
20200407074125 55 279 0.0 10.0 0.08 0.96 0.07 98 1015.1
20200407073623 55 244 2.0 8.0 0.08 0.96 0.07 98 1015.0
20200407073124 55 238 0.0 5.0 0.08 0.94 0.06 98 1015.1
20200407072638 55 203 0.0 8.0 0.06 0.92 0.04 98 1015.0
20200407072124 55 245 1.0 8.0 0.06 0.91 0.02 98 1015.1
20200407071624 55 258 0.0 2.0 0.07 0.91 0.02 98 1015.1
20200407071123 55 199 0.0 5.0 0.07 0.89 0.01 98 1015.1
20200407070625 55 216 0.0 5.0 0.08 0.89 0.00 98 1015.1
20200407070124 55 236 1.0 5.0 0.08 0.89 0.00 98 1015.0
20200407065623 55 250 0.0 5.0 0.09 0.87 1.06 98 1015.1
20200407065123 55 267 1.0 5.0 0.11 0.87 1.06 98 1015.1
20200407064624 55 220 0.0 8.0 0.11 0.87 1.06 98 1015.1
20200407064124 55 242 0.0 8.0 0.12 0.87 1.06 98 1015.1
20200407063623 55 311 0.0 8.0 0.12 0.87 1.06 98 1015.2
20200407063121 55 230 1.0 8.0 0.12 0.86 1.05 98 1015.1
20200407062624 55 225 3.0 8.0 0.14 0.86 1.05 98 1015.1
20200407062123 55 234 1.0 5.0 0.15 0.85 1.04 98 1015.1
20200407061624 55 261 0.0 5.0 0.18 0.84 1.03 98 1015.1
20200407061122 55 270 0.0 2.0 0.21 0.81 1.00 98 1015.1
20200407060624 55 231 2.0 2.0 0.25 0.80 0.99 98 1015.1
20200407060123 55 204 0.0 5.0 0.27 0.80 0.99 98 1015.1
20200407055622 55 235 0.0 8.0 0.27 0.78 0.97 97 1015.1
20200407055123 55 139 2.0 8.0 0.28 0.77 0.96 97 1015.0
20200407054622 55 218 0.0 2.0 0.31 0.77 0.96 97 1015.0
20200407054122 55 239 2.0 5.0 0.31 0.76 0.94 97 1015.0
20200407053622 55 201 1.0 10.0 0.32 0.76 0.94 97 1015.0
20200407053121 55 204 1.0 10.0 0.32 0.74 0.93 97 1015.0
20200407052621 55 236 2.0 8.0 0.30 0.72 0.91 97 1015.0
20200407052123 55 285 2.0 10.0 0.28 0.70 0.89 97 1015.0
20200407051622 55 163 2.0 13.0 0.25 0.66 0.85 97 1015.0
20200407051121 55 223 1.0 15.0 0.20 0.60 0.80 97 1014.8
20200407050620 55 183 4.0 15.0 0.17 0.56 0.76 97 1014.7
20200407050121 55 78 1.0 13.0 0.14 0.53 0.72 97 1014.6
20200407045620 55 271 2.0 13.0 0.13 0.51 0.70 97 1014.6
20200407045121 55 288 0.0 13.0 0.13 0.48 0.67 97 1014.7
20200407044624 55 146 1.0 8.0 0.12 0.45 0.64 97 1014.6
20200407044620 55 201 0.0 13.0 0.12 0.46 0.65 97 1014.6
20200407043621 55 165 3.0 8.0 0.12 0.44 0.63 96 1014.6
20200407043123 55 184 1.0 10.0 0.12 0.43 0.61 97 1014.5
20200407042620 55 186 2.0 10.0 0.13 0.43 0.61 96 1014.5
20200407042121 55 183 0.0 10.0 0.13 0.41 0.60 96 1014.3
20200407041623 55 206 2.0 10.0 0.13 0.41 0.60 96 1014.3
20200407041122 55 106 3.0 13.0 0.12 0.40 0.59 96 1014.3
20200407040622 55 124 3.0 13.0 0.12 0.39 0.58 96 1014.2
20200407040121 55 231 2.0 10.0 0.12 0.39 0.58 96 1014.2
20200407035624 55 217 4.0 13.0 0.12 0.38 0.57 96 1014.1
20200407035121 55 142 2.0 13.0 0.11 0.35 0.54 96 1014.1
20200407034619 55 270 2.0 10.0 0.09 0.34 0.53 96 1014.1
20200407034121 55 119 2.0 8.0 0.08 0.33 0.52 96 1014.1
20200407033621 55 256 1.0 8.0 0.08 0.32 0.51 95 1014.0
20200407033119 55 176 1.0 8.0 0.08 0.31 0.51 95 1014.0
20200407032619 55 170 3.0 8.0 0.07 0.30 0.50 95 1013.9
20200407032120 55 144 3.0 8.0 0.07 0.28 0.48 95 1013.9
20200407031622 55 190 2.0 10.0 0.08 0.28 0.47 95 1013.9
20200407031121 55 177 3.0 10.0 0.08 0.28 0.47 95 1013.9
20200407030620 55 97 1.0 10.0 0.07 0.27 0.46 95 1013.9
20200407030120 55 167 1.0 10.0 0.08 0.27 0.46 95 1013.8
20200407025626 55 118 2.0 10.0 0.07 0.26 0.45 95 1013.7
20200407025118 55 315 1.0 13.0 0.06 0.25 0.44 95 1013.8
20200407024618 55 56 5.0 13.0 0.07 0.25 0.44 95 1013.7
20200407024119 55 166 0.0 8.0 0.08 0.25 0.44 95 1013.7
20200407023620 55 166 1.0 10.0 0.08 0.24 0.43 95 1013.6
20200407023117 55 263 2.0 10.0 0.07 0.22 0.43 95 1013.7
20200407022618 55 88 2.0 10.0 0.08 0.22 0.41 94 1013.6
20200407022130 55 205 4.0 13.0 0.07 0.21 0.40 94 1013.6
20200407021618 55 211 2.0 15.0 0.06 0.20 0.39 94 1013.5
20200407021119 55 177 8.0 15.0 0.06 0.20 0.39 95 1013.6
20200407020617 55 263 3.0 13.0 0.07 0.20 0.39 95 1013.5
20200407020117 56 160 6.0 13.0 0.07 0.19 0.38 94 1013.5
20200407015617 56 226 4.0 13.0 0.08 0.19 0.38 94 1013.4
20200407015117 56 302 8.0 17.0 0.09 0.19 0.38 94 1013.5
20200407014616 56 232 8.0 17.0 0.08 0.18 0.37 94 1013.4
20200407014116 56 238 11.0 17.0 0.08 0.17 0.35 93 1013.2
20200407013617 56 206 6.0 10.0 0.07 0.15 0.34 94 1013.2
20200407013118 56 253 1.0 10.0 0.07 0.15 0.34 94 1013.2
20200407012618 56 264 2.0 8.0 0.07 0.14 0.33 94 1013.2
20200407012121 57 215 2.0 8.0 0.07 0.14 0.33 94 1013.3
20200407011617 57 262 3.0 10.0 0.07 0.14 0.33 93 1013.3
20200407011116 57 240 3.0 15.0 0.07 0.14 0.33 93 1013.2
20200407010616 57 252 3.0 15.0 0.06 0.13 0.32 93 1013.1
20200407010115 57 200 6.0 8.0 0.05 0.12 0.31 94 1013.2
20200407005617 57 222 4.0 8.0 0.04 0.11 0.30 94 1013.1
20200407005116 57 231 2.0 10.0 0.02 0.09 0.28 93 1013.0
20200407004615 57 174 4.0 10.0 0.02 0.09 0.28 93 1013.0
20200407004117 57 200 1.0 10.0 0.01 0.08 0.27 93 1013.0
20200407003616 57 132 2.0 13.0 0.01 0.08 0.27 92 1013.0
20200407003125 58 312 4.0 13.0 0.01 0.08 0.27 91 1013.0
20200407002616 58 236 2.0 10.0 0.00 0.07 0.26 88 1012.9
20200407002115 58 204 3.0 10.0 0.00 0.07 0.26 86 1012.9
20200407001616 58 205 5.0 15.0 0.00 0.07 0.26 87 1012.9
20200407001115 58 230 8.0 20.0 0.00 0.07 0.26 88 1012.8
20200407000615 58 246 8.0 20.0 0.00 0.07 0.26 90 1012.8
20200407000115 58 170 8.0 17.0 0.00 0.07 0.26 88 1012.8
20200406235617 58 211 3.0 17.0 0.00 0.07 0.26 86 1012.7